createdAt,value
2016-11-15T00:00:30.569Z,0
2016-11-15T00:01:43.750Z,0
2016-11-15T00:02:55.312Z,0
2016-11-15T00:04:07.783Z,0
2016-11-15T00:05:20.822Z,0
2016-11-15T00:06:34.387Z,0
2016-11-15T00:07:47.381Z,0
2016-11-15T00:09:00.443Z,0
2016-11-15T00:10:13.508Z,0
2016-11-15T00:11:25.963Z,0
2016-11-15T00:12:38.686Z,0
2016-11-15T00:13:52.431Z,0
2016-11-15T00:15:04.363Z,0
2016-11-15T00:16:17.380Z,0
2016-11-15T00:17:31.150Z,0
2016-11-15T00:18:43.635Z,0
2016-11-15T00:19:56.231Z,0
2016-11-15T00:21:08.845Z,0
2016-11-15T00:22:21.983Z,0
2016-11-15T00:23:35.089Z,0
2016-11-15T00:24:47.558Z,0
2016-11-15T00:26:00.126Z,0
2016-11-15T00:27:13.178Z,0
2016-11-15T00:28:26.407Z,0
2016-11-15T00:29:39.002Z,0
2016-11-15T00:30:52.179Z,0
2016-11-15T00:32:04.117Z,0
2016-11-15T00:33:16.754Z,0
2016-11-15T00:34:29.788Z,0
2016-11-15T00:35:42.828Z,0
2016-11-15T00:36:55.438Z,0
2016-11-15T00:38:08.104Z,0
2016-11-15T00:39:21.617Z,0
2016-11-15T00:40:34.761Z,0
2016-11-15T00:41:47.270Z,0
2016-11-15T00:43:00.440Z,0
2016-11-15T00:44:13.122Z,0
2016-11-15T00:45:26.350Z,0
2016-11-15T00:46:38.828Z,0
2016-11-15T00:47:51.875Z,0
2016-11-15T00:49:03.821Z,0
2016-11-15T00:50:16.863Z,0
2016-11-15T00:51:29.898Z,0
2016-11-15T00:52:42.433Z,0
2016-11-15T00:53:54.992Z,0
2016-11-15T00:55:07.507Z,0
2016-11-15T00:56:20.599Z,0
2016-11-15T00:57:33.063Z,0
2016-11-15T00:58:46.639Z,0
2016-11-15T00:59:59.851Z,0
2016-11-15T01:01:12.312Z,0
2016-11-15T01:02:24.869Z,0
2016-11-15T01:03:37.454Z,0
2016-11-15T01:04:50.543Z,0
2016-11-15T01:06:03.726Z,0
2016-11-15T01:07:16.418Z,0
2016-11-15T01:08:28.970Z,0
2016-11-15T01:09:42.497Z,0
2016-11-15T01:10:55.588Z,0
2016-11-15T01:12:39.840Z,0
2016-11-15T01:13:52.301Z,0
2016-11-15T01:15:05.304Z,0
2016-11-15T01:16:18.282Z,0
2016-11-15T01:17:30.838Z,0
2016-11-15T01:18:44.505Z,0
2016-11-15T01:19:56.985Z,0
2016-11-15T01:21:10.033Z,0
2016-11-15T01:22:23.091Z,0
2016-11-15T01:23:36.099Z,0
2016-11-15T01:24:47.992Z,0
2016-11-15T01:26:00.501Z,0
2016-11-15T01:27:13.630Z,0
2016-11-15T01:28:25.413Z,0
2016-11-15T01:29:37.962Z,0
2016-11-15T01:30:51.565Z,0
2016-11-15T01:32:04.795Z,0
2016-11-15T01:33:17.900Z,0
2016-11-15T01:34:30.956Z,0
2016-11-15T01:35:42.920Z,0
2016-11-15T01:36:56.492Z,0
2016-11-15T01:38:08.392Z,0
2016-11-15T01:39:20.446Z,0
2016-11-15T01:40:33.631Z,0
2016-11-15T01:41:45.761Z,0
2016-11-15T01:42:58.754Z,0
2016-11-15T01:44:10.831Z,0
2016-11-15T01:45:23.933Z,0
2016-11-15T01:46:36.930Z,0
2016-11-15T01:47:49.964Z,0
2016-11-15T01:49:01.973Z,0
2016-11-15T01:50:14.452Z,0
2016-11-15T01:51:27.005Z,0
2016-11-15T01:52:40.742Z,0
2016-11-15T01:53:53.360Z,0
2016-11-15T01:55:06.410Z,0
2016-11-15T01:56:18.452Z,0
2016-11-15T01:57:31.018Z,0
2016-11-15T01:58:43.591Z,0
2016-11-15T02:01:40.286Z,0
2016-11-15T02:02:52.789Z,0
2016-11-15T02:04:05.313Z,0
2016-11-15T02:05:17.281Z,0
2016-11-15T02:06:30.856Z,0
2016-11-15T02:07:43.840Z,0
2016-11-15T02:08:56.790Z,0
2016-11-15T02:10:09.786Z,0
2016-11-15T02:11:22.794Z,0
2016-11-15T02:12:36.460Z,0
2016-11-15T02:13:49.566Z,0
2016-11-15T02:15:02.148Z,0
2016-11-15T02:16:15.171Z,0
2016-11-15T02:17:28.798Z,0
2016-11-15T02:18:40.936Z,0
2016-11-15T02:19:53.941Z,0
2016-11-15T02:21:06.484Z,0
2016-11-15T02:22:20.345Z,0
2016-11-15T02:23:32.324Z,0
2016-11-15T02:24:45.542Z,0
2016-11-15T02:25:58.242Z,0
2016-11-15T02:27:10.681Z,0
2016-11-15T02:28:23.820Z,0
2016-11-15T02:29:36.328Z,0
2016-11-15T02:30:49.345Z,0
2016-11-15T02:32:01.387Z,0
2016-11-15T02:33:13.875Z,0
2016-11-15T02:34:25.836Z,0
2016-11-15T02:35:38.294Z,0
2016-11-15T02:36:49.763Z,0
2016-11-15T02:38:02.216Z,0
2016-11-15T02:39:13.675Z,0
2016-11-15T02:40:26.786Z,0
2016-11-15T02:41:38.555Z,0
2016-11-15T02:42:52.554Z,0
2016-11-15T02:44:05.047Z,0
2016-11-15T02:45:18.656Z,0
2016-11-15T02:46:31.169Z,0
2016-11-15T02:47:44.678Z,0
2016-11-15T02:48:58.275Z,0
2016-11-15T02:50:10.839Z,0
2016-11-15T02:51:24.526Z,0
2016-11-15T02:52:37.041Z,0
2016-11-15T02:53:49.519Z,0
2016-11-15T02:55:02.623Z,0
2016-11-15T02:56:15.085Z,0
2016-11-15T02:57:28.793Z,0
2016-11-15T03:00:25.475Z,0
2016-11-15T03:01:38.600Z,0
2016-11-15T03:02:51.606Z,0
2016-11-15T03:04:04.215Z,0
2016-11-15T03:05:16.747Z,0
2016-11-15T03:06:29.366Z,0
2016-11-15T03:07:41.835Z,0
2016-11-15T03:08:55.352Z,0
2016-11-15T03:10:07.853Z,0
2016-11-15T03:11:20.319Z,0
2016-11-15T03:12:33.887Z,0
2016-11-15T03:13:46.891Z,0
2016-11-15T03:15:00.479Z,0
2016-11-15T03:16:13.510Z,0
2016-11-15T03:17:25.449Z,0
2016-11-15T03:18:38.479Z,0
2016-11-15T03:19:51.502Z,0
2016-11-15T03:21:04.678Z,0
2016-11-15T03:22:18.472Z,0
2016-11-15T03:23:30.982Z,0
2016-11-15T03:24:43.478Z,0
2016-11-15T03:25:56.550Z,0
2016-11-15T03:28:54.923Z,0
2016-11-15T03:30:07.530Z,0
2016-11-15T03:31:20.070Z,0
2016-11-15T03:32:32.112Z,0
2016-11-15T03:33:45.342Z,0
2016-11-15T03:34:58.447Z,0
2016-11-15T03:36:12.016Z,0
2016-11-15T03:37:25.589Z,0
2016-11-15T03:38:38.126Z,0
2016-11-15T03:39:51.720Z,0
2016-11-15T03:41:04.774Z,0
2016-11-15T03:42:17.414Z,0
2016-11-15T03:43:30.025Z,0
2016-11-15T03:44:43.085Z,0
2016-11-15T03:45:56.816Z,0
2016-11-15T03:47:10.380Z,0
2016-11-15T03:48:22.470Z,0
2016-11-15T03:49:36.006Z,0
2016-11-15T03:50:49.012Z,0
2016-11-15T03:52:02.066Z,0
2016-11-15T03:53:14.629Z,0
2016-11-15T03:54:27.657Z,0
2016-11-15T03:55:40.175Z,0
2016-11-15T03:56:53.231Z,0
2016-11-15T03:58:06.818Z,0
2016-11-15T03:59:20.426Z,0
2016-11-15T04:00:34.008Z,0
2016-11-15T04:01:47.162Z,0
2016-11-15T04:02:59.755Z,0
2016-11-15T04:04:12.213Z,0
2016-11-15T04:05:24.248Z,0
2016-11-15T04:06:36.741Z,0
2016-11-15T04:07:48.807Z,0
2016-11-15T04:09:02.319Z,0
2016-11-15T04:10:15.936Z,0
2016-11-15T04:11:27.881Z,0
2016-11-15T04:12:41.037Z,0
2016-11-15T04:13:53.628Z,0
2016-11-15T04:15:06.142Z,0
2016-11-15T04:16:18.566Z,0
2016-11-15T04:17:30.529Z,0
2016-11-15T04:18:43.540Z,0
2016-11-15T04:19:56.067Z,0
2016-11-15T04:21:09.093Z,0
2016-11-15T04:22:20.528Z,0
2016-11-15T04:23:33.002Z,0
2016-11-15T04:24:45.497Z,0
2016-11-15T04:25:58.458Z,0
2016-11-15T04:27:11.496Z,0
2016-11-15T04:28:25.105Z,0
2016-11-15T04:29:37.689Z,0
2016-11-15T04:30:50.174Z,0
2016-11-15T04:32:02.637Z,0
2016-11-15T04:33:15.135Z,0
2016-11-15T04:34:27.672Z,0
2016-11-15T04:35:40.214Z,0
2016-11-15T04:36:53.254Z,0
2016-11-15T04:38:06.815Z,0
2016-11-15T04:39:19.854Z,0
2016-11-15T04:40:32.894Z,0
2016-11-15T04:41:45.898Z,0
2016-11-15T04:42:57.898Z,0
2016-11-15T04:44:11.448Z,0
2016-11-15T04:45:23.939Z,0
2016-11-15T04:46:36.944Z,0
2016-11-15T04:47:50.632Z,0
2016-11-15T04:49:04.220Z,0
2016-11-15T04:50:16.691Z,0
2016-11-15T04:51:29.719Z,0
2016-11-15T04:52:42.211Z,0
2016-11-15T04:53:55.266Z,0
2016-11-15T04:55:08.342Z,0
2016-11-15T04:56:20.905Z,0
2016-11-15T04:57:32.342Z,0
2016-11-15T04:58:44.339Z,0
2016-11-15T04:59:57.314Z,0
2016-11-15T05:01:09.768Z,0
2016-11-15T05:02:23.263Z,0
2016-11-15T05:03:35.806Z,0
2016-11-15T05:04:48.271Z,0
2016-11-15T05:06:00.780Z,0
2016-11-15T05:07:13.773Z,0
2016-11-15T05:08:26.260Z,0
2016-11-15T05:09:39.780Z,0
2016-11-15T05:10:52.747Z,0
2016-11-15T05:12:05.709Z,0
2016-11-15T05:13:18.187Z,0
2016-11-15T05:14:31.215Z,0
2016-11-15T05:15:44.718Z,0
2016-11-15T05:16:56.635Z,0
2016-11-15T05:18:08.590Z,0
2016-11-15T05:19:20.552Z,0
2016-11-15T05:20:34.112Z,0
2016-11-15T05:21:47.140Z,0
2016-11-15T05:23:00.600Z,0
2016-11-15T05:24:13.036Z,0
2016-11-15T05:25:25.527Z,0
2016-11-15T05:26:37.991Z,0
2016-11-15T05:27:49.913Z,0
2016-11-15T05:29:02.407Z,0
2016-11-15T05:30:15.379Z,0
2016-11-15T05:31:27.314Z,0
2016-11-15T05:32:40.324Z,0
2016-11-15T05:33:51.783Z,0
2016-11-15T05:35:04.835Z,0
2016-11-15T05:36:16.849Z,0
2016-11-15T05:37:28.804Z,0
2016-11-15T05:38:40.239Z,0
2016-11-15T05:39:52.249Z,0
2016-11-15T05:41:05.313Z,0
2016-11-15T05:42:17.248Z,0
2016-11-15T05:43:30.870Z,0
2016-11-15T05:44:44.387Z,0
2016-11-15T05:45:56.883Z,0
2016-11-15T05:47:08.877Z,0
2016-11-15T05:48:20.852Z,0
2016-11-15T05:49:33.878Z,0
2016-11-15T05:50:45.909Z,0
2016-11-15T05:51:58.390Z,0
2016-11-15T05:53:11.889Z,0
2016-11-15T05:54:24.456Z,0
2016-11-15T05:55:36.920Z,0
2016-11-15T05:56:49.919Z,0
2016-11-15T05:58:02.380Z,0
2016-11-15T05:59:15.420Z,0
2016-11-15T06:00:27.944Z,0
2016-11-15T06:01:40.977Z,0
2016-11-15T06:02:52.954Z,0
2016-11-15T06:04:05.998Z,0
2016-11-15T06:05:17.926Z,0
2016-11-15T06:06:30.449Z,0
2016-11-15T06:07:42.994Z,0
2016-11-15T06:08:55.930Z,0
2016-11-15T06:10:07.933Z,0
2016-11-15T06:11:20.440Z,0
2016-11-15T06:12:33.503Z,0
2016-11-15T06:13:46.063Z,0
2016-11-15T06:14:59.628Z,0
2016-11-15T06:16:12.070Z,0
2016-11-15T06:17:25.152Z,0
2016-11-15T06:18:37.619Z,0
2016-11-15T06:19:50.167Z,0
2016-11-15T06:21:02.102Z,0
2016-11-15T06:22:14.120Z,0
2016-11-15T06:23:27.657Z,0
2016-11-15T06:24:40.647Z,0
2016-11-15T06:25:53.130Z,0
2016-11-15T06:27:06.231Z,0
2016-11-15T06:28:19.209Z,0
2016-11-15T06:29:31.208Z,0
2016-11-15T06:30:44.758Z,0
2016-11-15T06:31:57.270Z,0
2016-11-15T06:33:09.720Z,0
2016-11-15T06:34:22.787Z,0
2016-11-15T06:35:34.770Z,0
2016-11-15T06:36:46.725Z,0
2016-11-15T06:37:59.847Z,0
2016-11-15T06:39:12.904Z,0
2016-11-15T06:40:25.454Z,0
2016-11-15T06:41:38.992Z,0
2016-11-15T06:42:52.015Z,0
2016-11-15T06:44:05.533Z,0
2016-11-15T06:45:17.505Z,0
2016-11-15T06:46:31.012Z,0
2016-11-15T06:47:44.015Z,0
2016-11-15T06:48:56.537Z,0
2016-11-15T06:50:08.973Z,0
2016-11-15T06:51:22.001Z,0
2016-11-15T06:52:35.087Z,0
2016-11-15T06:53:48.660Z,0
2016-11-15T06:55:00.667Z,0
2016-11-15T06:56:13.704Z,0
2016-11-15T06:57:25.712Z,0
2016-11-15T06:58:38.214Z,0
2016-11-15T06:59:50.666Z,0
2016-11-15T07:01:03.641Z,0
2016-11-15T07:02:17.183Z,0
2016-11-15T07:03:29.173Z,0
2016-11-15T07:04:42.741Z,0
2016-11-15T07:05:55.248Z,0
2016-11-15T07:07:08.284Z,0
2016-11-15T07:08:20.232Z,0
2016-11-15T07:09:33.210Z,0
2016-11-15T07:10:46.696Z,0
2016-11-15T07:11:59.680Z,0
2016-11-15T07:13:12.218Z,0
2016-11-15T07:14:25.783Z,0
2016-11-15T07:15:39.382Z,0
2016-11-15T07:16:51.926Z,0
2016-11-15T07:18:05.498Z,0
2016-11-15T07:19:18.019Z,0
2016-11-15T07:20:29.990Z,0
2016-11-15T07:21:42.475Z,0
2016-11-15T07:22:55.527Z,0
2016-11-15T07:24:09.031Z,0
2016-11-15T07:25:22.083Z,0
2016-11-15T07:26:34.618Z,0
2016-11-15T07:27:47.560Z,0
2016-11-15T07:29:00.056Z,0
2016-11-15T07:30:11.548Z,0
2016-11-15T07:31:23.531Z,0
2016-11-15T07:32:36.022Z,0
2016-11-15T07:33:49.619Z,0
2016-11-15T07:35:02.643Z,0
2016-11-15T07:36:16.216Z,0
2016-11-15T07:37:28.645Z,0
2016-11-15T07:38:41.707Z,0
2016-11-15T07:39:53.638Z,0
2016-11-15T07:41:07.187Z,0
2016-11-15T07:42:20.164Z,0
2016-11-15T07:43:32.650Z,0
2016-11-15T07:44:45.166Z,0
2016-11-15T07:45:58.231Z,0
2016-11-15T07:47:09.680Z,0
2016-11-15T07:48:22.719Z,0
2016-11-15T07:49:35.388Z,0
2016-11-15T07:50:48.462Z,0
2016-11-15T07:52:01.989Z,0
2016-11-15T07:53:15.003Z,0
2016-11-15T07:54:28.058Z,0
2016-11-15T07:55:41.130Z,0
2016-11-15T07:56:54.090Z,4
2016-11-15T07:58:06.531Z,0
2016-11-15T07:59:19.616Z,4
2016-11-15T08:00:33.138Z,8
2016-11-15T08:01:45.092Z,12
2016-11-15T08:02:58.096Z,12
2016-11-15T08:04:11.644Z,12
2016-11-15T08:05:24.662Z,12
2016-11-15T08:06:36.695Z,16
2016-11-15T08:07:49.718Z,24
2016-11-15T08:09:02.739Z,32
2016-11-15T08:10:15.743Z,36
2016-11-15T08:11:29.278Z,40
2016-11-15T08:12:41.226Z,44
2016-11-15T08:13:54.807Z,48
2016-11-15T08:15:06.755Z,56
2016-11-15T08:16:20.349Z,60
2016-11-15T08:17:33.946Z,64
2016-11-15T08:18:46.479Z,64
2016-11-15T08:19:59.500Z,72
2016-11-15T08:21:13.083Z,80
2016-11-15T08:22:26.097Z,108
2016-11-15T08:23:38.592Z,120
2016-11-15T08:24:52.103Z,124
2016-11-15T08:26:04.506Z,152
2016-11-15T08:27:17.512Z,176
2016-11-15T08:28:30.604Z,200
2016-11-15T08:29:43.079Z,212
2016-11-15T08:30:56.647Z,272
2016-11-15T08:32:09.608Z,308
2016-11-15T08:33:22.665Z,380
2016-11-15T08:36:18.893Z,520
2016-11-15T08:37:31.451Z,524
2016-11-15T08:38:44.458Z,496
2016-11-15T08:39:57.492Z,472
2016-11-15T08:41:10.538Z,492
2016-11-15T08:42:23.556Z,512
2016-11-15T08:43:36.101Z,620
2016-11-15T08:44:48.633Z,680
2016-11-15T08:46:02.179Z,764
2016-11-15T08:47:14.143Z,864
2016-11-15T08:48:27.674Z,780
2016-11-15T08:49:40.133Z,696
2016-11-15T08:50:53.703Z,660
2016-11-15T08:52:06.156Z,608
2016-11-15T08:53:18.077Z,724
2016-11-15T08:54:31.137Z,864
2016-11-15T08:55:43.590Z,792
2016-11-15T08:56:57.140Z,848
2016-11-15T08:58:09.639Z,1224
2016-11-15T08:59:22.191Z,1532
2016-11-15T09:00:35.685Z,1328
2016-11-15T09:01:47.619Z,1212
2016-11-15T09:03:01.163Z,1212
2016-11-15T09:04:13.620Z,1108
2016-11-15T09:05:25.597Z,860
2016-11-15T09:06:39.119Z,768
2016-11-15T09:07:51.612Z,888
2016-11-15T09:09:04.606Z,948
2016-11-15T09:10:17.077Z,912
2016-11-15T09:11:29.584Z,912
2016-11-15T09:12:42.661Z,876
2016-11-15T09:13:54.587Z,840
2016-11-15T09:15:07.630Z,756
2016-11-15T09:16:20.104Z,732
2016-11-15T09:17:32.561Z,772
2016-11-15T09:18:45.640Z,892
2016-11-15T09:19:57.691Z,1132
2016-11-15T09:21:09.095Z,1216
2016-11-15T09:22:21.026Z,1636
2016-11-15T09:23:33.491Z,1508
2016-11-15T09:24:45.970Z,1224
2016-11-15T09:25:58.455Z,1240
2016-11-15T09:27:11.471Z,1332
2016-11-15T09:28:23.944Z,1532
2016-11-15T09:29:41.087Z,2412
2016-11-15T09:30:53.600Z,2520
2016-11-15T09:32:06.110Z,3144
2016-11-15T09:33:19.602Z,3436
2016-11-15T09:34:32.230Z,3932
2016-11-15T09:35:44.679Z,4636
2016-11-15T09:36:57.716Z,7360
2016-11-15T09:38:10.140Z,5504
2016-11-15T09:39:22.111Z,4088
2016-11-15T09:40:35.131Z,5068
2016-11-15T09:41:47.076Z,4904
2016-11-15T09:42:59.582Z,2984
2016-11-15T09:44:13.076Z,3936
2016-11-15T09:45:26.106Z,6636
2016-11-15T09:46:38.623Z,3564
2016-11-15T09:47:52.153Z,3032
2016-11-15T09:49:05.158Z,2644
2016-11-15T09:50:17.102Z,2624
2016-11-15T09:51:30.133Z,2596
2016-11-15T09:52:42.115Z,2380
2016-11-15T09:53:54.594Z,2552
2016-11-15T09:55:06.562Z,2996
2016-11-15T09:56:19.560Z,5000
2016-11-15T09:57:32.598Z,13476
2016-11-15T09:58:45.675Z,11356
2016-11-15T09:59:58.200Z,11360
2016-11-15T10:01:10.657Z,11544
2016-11-15T10:02:22.634Z,6816
2016-11-15T10:03:35.667Z,4248
2016-11-15T10:04:48.652Z,4188
2016-11-15T10:06:00.089Z,4580
2016-11-15T10:07:13.717Z,4068
2016-11-15T10:08:26.731Z,4864
2016-11-15T10:09:40.306Z,6620
2016-11-15T10:10:53.896Z,6384
2016-11-15T10:12:06.934Z,4820
2016-11-15T10:13:20.523Z,3504
2016-11-15T10:14:33.540Z,3076
2016-11-15T10:15:46.056Z,2720
2016-11-15T10:16:59.585Z,2344
2016-11-15T10:18:13.129Z,2096
2016-11-15T10:19:26.347Z,2176
2016-11-15T10:20:38.854Z,2088
2016-11-15T10:21:51.393Z,2192
2016-11-15T10:23:03.907Z,2416
2016-11-15T10:24:16.431Z,2760
2016-11-15T10:25:29.391Z,3732
2016-11-15T10:26:41.940Z,4920
2016-11-15T10:27:55.015Z,5624
2016-11-15T10:29:07.555Z,6164
2016-11-15T10:30:21.120Z,6332
2016-11-15T10:31:33.617Z,5036
2016-11-15T10:32:47.194Z,4784
2016-11-15T10:34:00.660Z,6956
2016-11-15T10:35:13.706Z,7744
2016-11-15T10:36:25.669Z,8148
2016-11-15T10:37:38.093Z,5816
2016-11-15T10:38:50.575Z,5388
2016-11-15T10:40:03.084Z,6256
2016-11-15T10:41:15.598Z,8136
2016-11-15T10:42:28.655Z,9288
2016-11-15T10:44:13.316Z,15384
2016-11-15T10:45:26.338Z,17376
2016-11-15T10:46:39.441Z,14668
2016-11-15T10:47:51.965Z,5312
2016-11-15T10:49:05.569Z,4492
2016-11-15T10:50:19.189Z,4412
2016-11-15T10:51:31.718Z,4484
2016-11-15T10:52:44.804Z,3644
2016-11-15T10:53:57.824Z,2920
2016-11-15T10:55:10.849Z,2704
2016-11-15T10:56:23.959Z,2700
2016-11-15T10:57:36.927Z,2816
2016-11-15T10:58:49.909Z,3260
2016-11-15T11:00:03.443Z,3440
2016-11-15T11:01:15.937Z,3200
2016-11-15T11:02:28.940Z,3160
2016-11-15T11:03:42.496Z,3192
2016-11-15T11:04:56.067Z,2752
2016-11-15T11:06:09.638Z,2508
2016-11-15T11:07:22.647Z,2036
2016-11-15T11:08:35.161Z,1728
2016-11-15T11:09:48.249Z,1732
2016-11-15T11:11:00.783Z,2404
2016-11-15T11:12:13.275Z,3772
2016-11-15T11:13:26.242Z,5092
2016-11-15T11:14:38.665Z,8008
2016-11-15T11:15:51.696Z,10512
2016-11-15T11:17:05.197Z,17504
2016-11-15T11:18:18.237Z,19136
2016-11-15T11:19:30.717Z,13724
2016-11-15T11:20:43.785Z,16736
2016-11-15T11:21:55.746Z,7740
2016-11-15T11:23:08.807Z,7104
2016-11-15T11:24:22.388Z,5896
2016-11-15T11:25:34.915Z,4136
2016-11-15T11:26:47.969Z,3200
2016-11-15T11:27:59.877Z,3456
2016-11-15T11:29:12.872Z,4512
2016-11-15T11:30:26.375Z,4136
2016-11-15T11:31:38.353Z,4028
2016-11-15T11:32:51.356Z,4624
2016-11-15T11:34:34.925Z,6064
2016-11-15T11:35:46.937Z,6432
2016-11-15T11:37:00.505Z,5912
2016-11-15T11:38:13.521Z,5508
2016-11-15T11:39:26.010Z,5696
2016-11-15T11:40:38.500Z,6376
2016-11-15T11:41:50.494Z,6200
2016-11-15T11:43:04.014Z,6656
2016-11-15T11:44:16.471Z,7656
2016-11-15T11:45:29.496Z,7248
2016-11-15T11:46:42.533Z,7944
2016-11-15T11:47:55.579Z,8152
2016-11-15T11:49:08.564Z,10040
2016-11-15T11:50:19.978Z,10188
2016-11-15T11:51:32.537Z,8340
2016-11-15T11:52:45.635Z,8512
2016-11-15T11:53:59.161Z,7564
2016-11-15T11:55:11.687Z,6720
2016-11-15T11:56:25.273Z,6256
2016-11-15T11:57:37.760Z,5428
2016-11-15T11:58:51.367Z,4924
2016-11-15T12:00:04.428Z,6444
2016-11-15T12:01:17.027Z,11928
2016-11-15T12:02:30.545Z,15616
2016-11-15T12:03:43.273Z,7508
2016-11-15T12:04:56.303Z,6928
2016-11-15T12:06:09.798Z,9724
2016-11-15T12:07:23.406Z,5900
2016-11-15T12:08:35.968Z,5208
2016-11-15T12:09:48.546Z,6496
2016-11-15T12:11:01.631Z,7056
2016-11-15T12:12:14.115Z,5572
2016-11-15T12:13:27.753Z,4884
2016-11-15T12:14:41.313Z,3688
2016-11-15T12:15:54.334Z,2904
2016-11-15T12:17:06.801Z,2488
2016-11-15T12:18:20.321Z,2488
2016-11-15T12:19:33.314Z,2936
2016-11-15T12:20:45.804Z,4400
2016-11-15T12:21:58.908Z,7928
2016-11-15T12:23:11.916Z,10104
2016-11-15T12:24:25.427Z,11580
2016-11-15T12:25:38.501Z,12804
2016-11-15T12:26:51.531Z,12604
2016-11-15T12:28:04.026Z,13300
2016-11-15T12:29:17.647Z,17760
2016-11-15T12:30:31.158Z,16864
2016-11-15T12:31:42.037Z,14460
2016-11-15T12:32:55.085Z,19392
2016-11-15T12:34:08.135Z,23264
2016-11-15T12:35:21.698Z,22240
2016-11-15T12:36:33.723Z,27616
2016-11-15T12:37:46.733Z,18912
2016-11-15T12:38:59.771Z,17856
2016-11-15T12:40:12.306Z,19200
2016-11-15T12:41:25.375Z,18816
2016-11-15T12:42:37.354Z,8832
2016-11-15T12:43:49.348Z,7268
2016-11-15T12:45:02.370Z,7668
2016-11-15T12:46:15.452Z,7608
2016-11-15T12:47:28.029Z,8228
2016-11-15T12:48:41.008Z,7280
2016-11-15T12:49:53.497Z,6544
2016-11-15T12:51:06.999Z,6584
2016-11-15T12:52:19.991Z,7308
2016-11-15T12:53:33.026Z,8420
2016-11-15T12:54:45.488Z,10324
2016-11-15T12:55:57.966Z,11976
2016-11-15T12:57:11.465Z,13140
2016-11-15T12:58:22.909Z,14204
2016-11-15T12:59:35.910Z,15128
2016-11-15T13:00:48.936Z,15740
2016-11-15T13:02:00.877Z,16992
2016-11-15T13:03:13.356Z,18400
2016-11-15T13:04:27.023Z,19936
2016-11-15T13:05:39.470Z,19104
2016-11-15T13:06:51.986Z,27392
2016-11-15T13:08:05.520Z,20928
2016-11-15T13:09:18.030Z,19840
2016-11-15T13:10:31.085Z,19712
2016-11-15T13:11:44.632Z,15668
2016-11-15T13:12:57.688Z,18464
2016-11-15T13:14:10.751Z,16864
2016-11-15T13:15:23.882Z,14196
2016-11-15T13:16:37.454Z,14104
2016-11-15T13:17:49.964Z,10196
2016-11-15T13:19:02.977Z,7140
2016-11-15T13:20:15.984Z,7076
2016-11-15T13:21:29.540Z,7740
2016-11-15T13:22:42.080Z,7664
2016-11-15T13:23:55.085Z,7960
2016-11-15T13:25:07.587Z,8500
2016-11-15T13:26:21.160Z,9436
2016-11-15T13:27:33.699Z,10580
2016-11-15T13:28:46.254Z,12120
2016-11-15T13:29:59.238Z,13720
2016-11-15T13:31:12.227Z,14728
2016-11-15T13:32:25.779Z,17248
2016-11-15T13:33:39.428Z,17536
2016-11-15T13:34:52.467Z,21440
2016-11-15T13:36:04.971Z,23328
2016-11-15T13:37:17.516Z,12764
2016-11-15T13:38:30.033Z,8804
2016-11-15T13:39:43.078Z,7340
2016-11-15T13:40:55.557Z,6992
2016-11-15T13:42:08.583Z,8100
2016-11-15T13:43:22.092Z,10284
2016-11-15T13:44:34.628Z,12216
2016-11-15T13:45:46.626Z,14760
2016-11-15T13:46:59.097Z,15672
2016-11-15T13:48:10.557Z,16832
2016-11-15T13:49:23.081Z,16544
2016-11-15T13:50:36.155Z,14616
2016-11-15T13:51:49.727Z,13868
2016-11-15T13:53:02.799Z,16416
2016-11-15T13:54:15.903Z,17504
2016-11-15T13:55:28.990Z,15040
2016-11-15T13:56:42.571Z,13600
2016-11-15T13:57:55.645Z,12696
2016-11-15T13:59:09.230Z,11420
2016-11-15T14:00:22.743Z,9908
2016-11-15T14:01:35.743Z,9464
2016-11-15T14:02:48.758Z,10016
2016-11-15T14:04:00.740Z,10660
2016-11-15T14:05:13.260Z,13232
2016-11-15T14:06:26.876Z,17664
2016-11-15T14:07:38.361Z,16672
2016-11-15T14:08:51.474Z,15680
2016-11-15T14:10:04.018Z,13268
2016-11-15T14:11:16.514Z,10500
2016-11-15T14:12:29.068Z,8348
2016-11-15T14:13:41.620Z,8008
2016-11-15T14:14:54.613Z,8972
2016-11-15T14:16:08.183Z,9636
2016-11-15T14:17:21.778Z,9012
2016-11-15T14:18:34.800Z,7932
2016-11-15T14:19:47.299Z,7852
2016-11-15T14:20:59.254Z,7972
2016-11-15T14:22:11.744Z,8260
2016-11-15T14:23:25.318Z,9576
2016-11-15T14:24:38.342Z,10304
2016-11-15T14:25:51.402Z,9852
2016-11-15T14:27:03.959Z,7740
2016-11-15T14:28:17.558Z,6868
2016-11-15T14:29:30.665Z,6848
2016-11-15T14:30:43.146Z,7552
2016-11-15T14:31:55.640Z,8532
2016-11-15T14:33:08.688Z,9308
2016-11-15T14:34:19.607Z,10724
2016-11-15T14:35:33.146Z,13520
2016-11-15T14:36:45.652Z,15776
2016-11-15T14:37:57.090Z,14816
2016-11-15T14:39:09.624Z,14768
2016-11-15T14:40:22.212Z,13892
2016-11-15T14:41:35.802Z,14668
2016-11-15T14:42:48.330Z,15264
2016-11-15T14:44:01.365Z,15396
2016-11-15T14:45:14.925Z,15152
2016-11-15T14:46:28.473Z,14828
2016-11-15T14:47:42.013Z,13696
2016-11-15T14:48:54.533Z,10872
2016-11-15T14:50:08.121Z,8896
2016-11-15T14:51:21.131Z,6088
2016-11-15T14:52:34.113Z,4028
2016-11-15T14:53:47.130Z,3676
2016-11-15T14:55:00.214Z,3712
2016-11-15T14:56:12.159Z,4100
2016-11-15T14:57:25.263Z,4476
2016-11-15T14:58:37.729Z,4760
2016-11-15T14:59:50.748Z,5540
2016-11-15T15:01:03.754Z,6252
2016-11-15T15:02:17.293Z,7144
2016-11-15T15:03:29.725Z,8416
2016-11-15T15:04:43.247Z,9836
2016-11-15T15:05:56.269Z,11060
2016-11-15T15:07:08.719Z,12092
2016-11-15T15:08:21.741Z,12784
2016-11-15T15:09:35.352Z,12532
2016-11-15T15:10:47.890Z,11688
2016-11-15T15:14:16.183Z,12140
2016-11-15T15:15:29.202Z,13208
2016-11-15T15:16:42.759Z,13264
2016-11-15T15:17:55.769Z,13336
2016-11-15T15:19:08.315Z,14272
2016-11-15T15:20:20.869Z,15404
2016-11-15T15:21:33.935Z,15136
2016-11-15T15:22:45.943Z,14672
2016-11-15T15:23:59.446Z,14392
2016-11-15T15:25:12.527Z,14192
2016-11-15T15:26:25.017Z,14068
2016-11-15T15:27:38.472Z,13900
2016-11-15T15:28:50.948Z,13732
2016-11-15T15:30:04.052Z,13620
2016-11-15T15:31:17.134Z,13220
2016-11-15T15:32:30.722Z,13520
2016-11-15T15:33:43.287Z,13056
2016-11-15T15:34:55.803Z,14032
2016-11-15T15:36:07.958Z,13980
2016-11-15T15:37:20.972Z,14276
2016-11-15T15:40:18.681Z,15904
2016-11-15T15:41:32.221Z,13576
2016-11-15T15:42:44.216Z,12252
2016-11-15T15:43:57.333Z,11352
2016-11-15T15:45:09.859Z,11076
2016-11-15T15:46:21.887Z,10720
2016-11-15T15:47:35.380Z,10212
2016-11-15T15:48:48.504Z,10204
2016-11-15T15:50:00.983Z,10588
2016-11-15T15:51:14.493Z,10868
2016-11-15T15:52:27.596Z,11404
2016-11-15T15:53:40.158Z,11672
2016-11-15T15:54:52.175Z,11320
2016-11-15T15:56:04.651Z,10020
2016-11-15T15:57:17.745Z,9388
2016-11-15T15:58:31.256Z,9236
2016-11-15T15:59:43.828Z,9464
2016-11-15T16:00:57.460Z,9788
2016-11-15T16:02:10.933Z,9944
2016-11-15T16:03:23.436Z,8544
2016-11-15T16:04:35.371Z,7792
2016-11-15T16:05:47.323Z,7740
2016-11-15T16:07:00.401Z,7956
2016-11-15T16:08:13.433Z,8232
2016-11-15T16:09:27.015Z,7652
2016-11-15T16:10:40.572Z,7252
2016-11-15T16:11:53.684Z,6848
2016-11-15T16:13:06.739Z,6560
2016-11-15T16:14:19.217Z,6284
2016-11-15T16:16:02.891Z,5272
2016-11-15T16:17:15.970Z,4680
2016-11-15T16:18:28.968Z,4344
2016-11-15T16:19:41.948Z,4396
2016-11-15T16:20:54.446Z,4760
2016-11-15T16:22:06.993Z,5184
2016-11-15T16:23:20.024Z,5704
2016-11-15T16:24:33.080Z,6432
2016-11-15T16:25:46.689Z,6896
2016-11-15T16:27:00.179Z,7236
2016-11-15T16:28:13.200Z,7640
2016-11-15T16:29:26.830Z,8004
2016-11-15T16:30:38.289Z,8268
2016-11-15T16:31:51.804Z,8572
2016-11-15T16:33:05.296Z,8932
2016-11-15T16:34:16.820Z,9280
2016-11-15T16:35:30.422Z,9512
2016-11-15T16:36:43.442Z,9676
2016-11-15T16:37:55.398Z,9684
2016-11-15T16:39:08.419Z,9644
2016-11-15T16:40:22.060Z,9648
2016-11-15T16:41:35.124Z,9580
2016-11-15T16:42:48.188Z,9648
2016-11-15T16:44:01.198Z,9940
2016-11-15T16:45:14.241Z,10560
2016-11-15T16:46:27.290Z,10564
2016-11-15T16:47:39.785Z,10544
2016-11-15T16:49:23.445Z,10208
2016-11-15T16:50:35.961Z,10024
2016-11-15T16:51:48.980Z,9888
2016-11-15T16:53:02.033Z,9896
2016-11-15T16:54:15.109Z,9964
2016-11-15T16:55:28.154Z,9924
2016-11-15T16:56:41.233Z,9680
2016-11-15T16:57:54.802Z,9032
2016-11-15T16:59:06.808Z,8208
2016-11-15T17:00:19.781Z,7364
2016-11-15T17:01:32.784Z,6956
2016-11-15T17:02:44.320Z,6760
2016-11-15T17:03:55.763Z,6568
2016-11-15T17:05:07.746Z,6648
2016-11-15T17:06:19.709Z,7100
2016-11-15T17:07:31.679Z,7552